createdAt,value
2023-01-30T00:02:17.553Z,60.25
2023-01-30T00:07:20.231Z,60.60
2023-01-30T00:12:23.039Z,60.03
2023-01-30T00:17:25.771Z,60.96
2023-01-30T00:22:28.611Z,61.04
2023-01-30T00:27:31.999Z,61.32
2023-01-30T00:32:34.765Z,61.35
2023-01-30T00:37:37.520Z,61.30
2023-01-30T00:42:58.666Z,61.69
2023-01-30T00:48:02.289Z,61.94
2023-01-30T00:53:05.087Z,61.88
2023-01-30T00:58:08.296Z,61.79
2023-01-30T01:03:11.378Z,61.88
2023-01-30T01:08:14.826Z,61.97
2023-01-30T01:13:17.945Z,62.25
2023-01-30T01:18:20.906Z,62.02
2023-01-30T01:23:23.610Z,62.40
2023-01-30T01:28:26.358Z,62.29
2023-01-30T01:33:29.743Z,62.33
2023-01-30T01:38:34.650Z,62.43
2023-01-30T01:43:40.063Z,62.49
2023-01-30T01:48:49.417Z,62.15
2023-01-30T01:53:58.697Z,62.27
2023-01-30T01:59:14.212Z,62.34
2023-01-30T02:04:37.137Z,62.35
2023-01-30T02:09:40.211Z,62.23
2023-01-30T02:14:44.277Z,61.82
2023-01-30T02:20:18.293Z,62.30
2023-01-30T02:26:09.332Z,62.08
2023-01-30T02:31:18.034Z,62.17
2023-01-30T02:36:51.460Z,61.88
2023-01-30T02:42:17.955Z,62.19
2023-01-30T02:47:38.842Z,61.87
2023-01-30T02:52:42.949Z,62.15
2023-01-30T02:57:46.299Z,62.00
2023-01-30T03:03:10.462Z,61.85
2023-01-30T03:08:33.192Z,61.53
2023-01-30T03:13:51.778Z,61.51
2023-01-30T03:18:55.351Z,61.20
2023-01-30T03:23:58.519Z,61.03
2023-01-30T03:29:02.914Z,61.61
2023-01-30T03:34:05.955Z,61.70
2023-01-30T03:39:09.192Z,61.46
2023-01-30T03:44:12.151Z,61.48
2023-01-30T03:49:18.370Z,61.36
2023-01-30T03:54:23.119Z,61.30
2023-01-30T03:59:26.280Z,61.38
2023-01-30T04:04:38.716Z,61.65
2023-01-30T04:09:44.287Z,61.57
2023-01-30T04:14:48.013Z,61.97
2023-01-30T04:20:09.115Z,61.86
2023-01-30T04:25:14.027Z,61.70
2023-01-30T04:30:17.670Z,62.09
2023-01-30T04:35:22.178Z,62.65
2023-01-30T04:40:25.201Z,62.35
2023-01-30T04:45:28.758Z,62.23
2023-01-30T04:50:32.312Z,61.44
2023-01-30T04:55:35.269Z,61.25
2023-01-30T05:00:38.436Z,60.67
2023-01-30T05:05:41.257Z,60.06
2023-01-30T05:10:44.924Z,59.73
2023-01-30T05:15:47.709Z,59.16
2023-01-30T05:20:50.845Z,58.67
2023-01-30T05:25:53.946Z,57.36
2023-01-30T05:31:03.323Z,56.73
2023-01-30T05:36:07.271Z,55.20
2023-01-30T05:41:11.827Z,53.87
2023-01-30T05:46:14.721Z,53.44
2023-01-30T05:51:20.127Z,52.31
2023-01-30T05:56:23.946Z,51.17
2023-01-30T06:01:28.380Z,50.25
2023-01-30T06:06:31.090Z,49.30
2023-01-30T06:11:34.101Z,47.94
2023-01-30T06:16:36.706Z,47.23
2023-01-30T06:21:39.574Z,46.75
2023-01-30T06:26:42.277Z,45.75
2023-01-30T06:31:45.117Z,45.07
2023-01-30T06:36:47.949Z,43.62
2023-01-30T06:41:50.567Z,42.83
2023-01-30T06:46:53.632Z,42.67
2023-01-30T06:51:56.422Z,42.96
2023-01-30T06:56:59.289Z,41.78
2023-01-30T07:02:02.152Z,41.26
2023-01-30T07:07:06.932Z,39.98
2023-01-30T07:12:09.933Z,39.65
2023-01-30T07:17:12.752Z,39.22
2023-01-30T07:22:15.830Z,38.29
2023-01-30T07:27:18.742Z,38.46
2023-01-30T07:32:21.687Z,38.47
2023-01-30T07:37:24.464Z,38.58
2023-01-30T07:42:27.234Z,38.83
2023-01-30T07:47:31.241Z,38.74
2023-01-30T07:52:34.117Z,39.77
2023-01-30T07:57:37.045Z,39.03
2023-01-30T08:02:39.911Z,39.03
2023-01-30T08:07:42.696Z,38.88
2023-01-30T08:12:45.352Z,38.24
2023-01-30T08:17:56.810Z,38.47
2023-01-30T08:23:02.228Z,37.92
2023-01-30T08:28:05.652Z,38.09
2023-01-30T08:33:08.496Z,37.99
2023-01-30T08:38:11.526Z,38.34
2023-01-30T08:43:14.282Z,38.66
2023-01-30T08:48:17.088Z,39.37
2023-01-30T08:53:20.120Z,39.79
2023-01-30T08:58:23.011Z,40.42
2023-01-30T09:03:25.858Z,40.21
2023-01-30T09:08:28.946Z,40.35
2023-01-30T09:13:32.891Z,41.31
2023-01-30T09:18:42.684Z,40.11
2023-01-30T09:23:45.521Z,39.50
2023-01-30T09:28:48.190Z,39.21
2023-01-30T09:33:51.060Z,38.75
2023-01-30T09:38:53.947Z,37.36
2023-01-30T09:44:33.169Z,36.47
2023-01-30T09:50:03.212Z,35.79
2023-01-30T09:55:21.067Z,34.57
2023-01-30T10:00:36.137Z,34.41
2023-01-30T10:05:54.059Z,35.29
2023-01-30T10:11:21.708Z,35.47
2023-01-30T10:16:42.816Z,35.58
2023-01-30T10:22:07.325Z,35.42
2023-01-30T10:27:17.014Z,34.56
2023-01-30T10:32:31.920Z,34.63
2023-01-30T10:38:06.933Z,36.50
2023-01-30T10:43:12.697Z,36.20
2023-01-30T10:48:43.803Z,37.63
2023-01-30T10:54:21.080Z,37.25
2023-01-30T10:59:32.404Z,36.88
2023-01-30T11:04:39.082Z,36.67
2023-01-30T11:09:47.522Z,37.56
2023-01-30T11:14:58.966Z,37.69
2023-01-30T11:20:23.715Z,37.92
2023-01-30T11:25:26.644Z,38.10
2023-01-30T11:30:34.065Z,38.97
2023-01-30T11:35:45.099Z,39.33
2023-01-30T11:40:47.880Z,39.14
2023-01-30T11:45:52.482Z,39.59
2023-01-30T11:51:04.631Z,39.97
2023-01-30T11:56:16.171Z,40.35
2023-01-30T12:01:19.218Z,41.03
2023-01-30T12:06:33.714Z,41.88
2023-01-30T12:11:42.583Z,42.65
2023-01-30T12:17:21.794Z,42.94
2023-01-30T12:22:44.809Z,43.46
2023-01-30T12:28:03.944Z,43.75
2023-01-30T12:33:11.389Z,44.02
2023-01-30T12:38:30.259Z,46.19
2023-01-30T12:44:02.339Z,47.54
2023-01-30T12:49:47.021Z,48.88
2023-01-30T12:55:02.908Z,49.36
2023-01-30T13:00:06.211Z,50.17
2023-01-30T13:05:35.711Z,50.61
2023-01-30T13:11:00.251Z,52.16
2023-01-30T13:16:24.421Z,52.29
2023-01-30T13:21:37.023Z,52.88
2023-01-30T13:26:43.374Z,53.64
2023-01-30T13:31:55.059Z,53.78
2023-01-30T13:37:04.532Z,54.44
2023-01-30T13:42:36.271Z,54.64
2023-01-30T13:47:56.988Z,55.35
2023-01-30T13:53:29.667Z,55.91
2023-01-30T13:59:00.846Z,55.88
2023-01-30T14:04:41.514Z,55.65
2023-01-30T14:09:52.779Z,57.29
2023-01-30T14:15:15.052Z,57.22
2023-01-30T14:20:23.681Z,57.46
2023-01-30T14:25:26.515Z,57.00
2023-01-30T14:30:33.551Z,56.96
2023-01-30T14:35:36.306Z,56.63
2023-01-30T14:40:41.603Z,56.60
2023-01-30T14:45:58.915Z,56.34
2023-01-30T14:51:24.710Z,55.87
2023-01-30T14:56:44.539Z,55.30
2023-01-30T15:02:13.513Z,55.07
2023-01-30T15:07:44.466Z,54.98
2023-01-30T15:13:05.631Z,54.84
2023-01-30T15:18:32.428Z,54.71
2023-01-30T15:23:45.496Z,54.43
2023-01-30T15:29:26.197Z,55.31
2023-01-30T15:34:52.034Z,55.24
2023-01-30T15:40:22.480Z,55.64
2023-01-30T15:45:47.676Z,55.93
2023-01-30T15:50:56.286Z,55.76
2023-01-30T15:56:02.734Z,56.09
2023-01-30T16:01:07.941Z,55.77
2023-01-30T16:06:38.646Z,56.42
2023-01-30T16:11:43.698Z,56.67
2023-01-30T16:16:46.697Z,56.72
2023-01-30T16:21:51.891Z,56.30
2023-01-30T16:27:01.115Z,56.82
2023-01-30T16:32:13.615Z,57.10
2023-01-30T16:37:18.518Z,57.08
2023-01-30T16:42:28.917Z,56.63
2023-01-30T16:47:31.800Z,57.12
2023-01-30T16:52:46.669Z,57.53
2023-01-30T16:58:01.094Z,57.48
2023-01-30T17:03:20.051Z,57.83
2023-01-30T17:08:32.255Z,57.93
2023-01-30T17:13:43.785Z,57.93
2023-01-30T17:18:51.378Z,58.38
2023-01-30T17:24:05.824Z,58.68
2023-01-30T17:29:23.287Z,59.23
2023-01-30T17:34:31.783Z,59.85
2023-01-30T17:39:34.587Z,59.61
2023-01-30T17:44:37.337Z,59.70
2023-01-30T17:49:40.803Z,59.73
2023-01-30T17:54:43.840Z,60.21
2023-01-30T17:59:47.309Z,60.17
2023-01-30T18:04:50.156Z,60.17
2023-01-30T18:09:52.953Z,61.04
2023-01-30T18:14:55.665Z,60.82
2023-01-30T18:20:01.325Z,60.85
2023-01-30T18:25:04.717Z,61.32
2023-01-30T18:30:08.375Z,60.95
2023-01-30T18:35:11.149Z,61.14
2023-01-30T18:40:15.371Z,61.36
2023-01-30T18:45:18.073Z,61.04
2023-01-30T18:50:21.378Z,60.53
2023-01-30T18:55:25.900Z,61.42
2023-01-30T19:00:29.548Z,61.01
2023-01-30T19:05:39.062Z,60.56
2023-01-30T19:10:41.856Z,61.21
2023-01-30T19:15:44.749Z,61.05
2023-01-30T19:20:47.784Z,61.11
2023-01-30T19:26:01.738Z,61.54
2023-01-30T19:31:09.659Z,61.77
2023-01-30T19:36:19.207Z,62.12
2023-01-30T19:41:27.479Z,62.05
2023-01-30T19:46:30.443Z,61.45
2023-01-30T19:51:35.273Z,61.83
2023-01-30T19:56:41.160Z,62.09
2023-01-30T20:01:44.172Z,62.35
2023-01-30T20:06:49.783Z,62.45
2023-01-30T20:11:52.676Z,62.11
2023-01-30T20:16:55.454Z,62.19
2023-01-30T20:21:58.519Z,62.42
2023-01-30T20:27:01.605Z,61.94
2023-01-30T20:32:04.644Z,62.15
2023-01-30T20:37:07.437Z,62.12
2023-01-30T20:42:10.270Z,61.90
2023-01-30T20:47:13.314Z,62.09
2023-01-30T20:52:16.323Z,61.89
2023-01-30T20:57:18.934Z,61.71
2023-01-30T21:02:21.612Z,61.46
2023-01-30T21:07:24.507Z,61.73
2023-01-30T21:12:27.577Z,61.66
2023-01-30T21:17:30.497Z,61.81
2023-01-30T21:22:33.624Z,61.80
2023-01-30T21:27:38.712Z,61.92
2023-01-30T21:32:42.791Z,62.28
2023-01-30T21:38:04.217Z,62.69
2023-01-30T21:43:14.796Z,63.01
2023-01-30T21:48:17.745Z,63.20
2023-01-30T21:53:20.643Z,63.17
2023-01-30T21:58:23.366Z,63.47
2023-01-30T22:03:27.953Z,63.61
2023-01-30T22:08:30.858Z,63.79
2023-01-30T22:13:34.876Z,64.19
2023-01-30T22:18:38.695Z,63.98
2023-01-30T22:23:46.218Z,64.04
2023-01-30T22:28:49.063Z,64.28
2023-01-30T22:33:56.743Z,64.46
2023-01-30T22:39:00.052Z,64.45
2023-01-30T22:44:05.368Z,64.24
2023-01-30T22:49:09.742Z,64.49
2023-01-30T22:54:16.166Z,64.68
2023-01-30T22:59:19.151Z,65.02
2023-01-30T23:04:23.920Z,64.98
2023-01-30T23:09:26.794Z,64.76
2023-01-30T23:14:29.903Z,65.54
2023-01-30T23:19:32.613Z,65.43
2023-01-30T23:24:36.707Z,65.27
2023-01-30T23:34:59.539Z,65.15
2023-01-30T23:40:02.229Z,65.64
2023-01-30T23:45:06.018Z,65.27
2023-01-30T23:50:09.855Z,65.14
2023-01-30T23:55:12.593Z,65.29
